Time;durP1;ratioP1;P1;durP2;ratioP2;P2;SDS_P1;SDS_P2;PMS_P1;PMS_P2;Temp;Humidity;BMP_temperature;BMP_pressure;BME280_temperature;BME280_humidity;BME280_pressure;Samples;Min_cycle;Max_cycle;Signal;HPM_P1;HPM_P2
2022/06/26 00:01:29;;;;;;;16.48;10.20;;;;;;;;;;4994798;28;20044;-63
2022/06/26 00:03:55;;;;;;;18.50;10.60;;;;;;;;;;5013959;28;20029;-64
2022/06/26 00:06:21;;;;;;;17.35;10.50;;;;;;;;;;4996759;28;20033;-63
2022/06/26 00:08:47;;;;;;;19.25;10.77;;;;;;;;;;5013342;28;20022;-63
2022/06/26 00:11:13;;;;;;;16.85;10.70;;;;;;;;;;5014018;28;20032;-63
2022/06/26 00:13:39;;;;;;;17.83;10.55;;;;;;;;;;5013892;28;20386;-64
2022/06/26 00:16:05;;;;;;;17.35;10.77;;;20.60;99.90;;;;;;5013923;28;20030;-61
2022/06/26 00:18:31;;;;;;;16.05;9.80;;;;;;;;;;5013199;28;20068;-64
2022/06/26 00:20:57;;;;;;;16.48;9.68;;;;;;;;;;5013691;28;20363;-64
2022/06/26 00:23:23;;;;;;;16.00;9.55;;;;;;;;;;4996319;28;20029;-63
2022/06/26 00:25:49;;;;;;;17.45;9.90;;;;;;;;;;5013699;28;20363;-63
2022/06/26 00:28:15;;;;;;;16.27;10.18;;;;;;;;;;5012907;28;20029;-63
2022/06/26 00:30:41;;;;;;;16.10;10.45;;;;;;;;;;5012224;28;20054;-62
2022/06/26 00:33:07;;;;;;;16.70;9.95;;;;;;;;;;5013733;28;20036;-63
2022/06/26 00:35:33;;;;;;;16.77;10.38;;;;;;;;;;4996052;28;20030;-63
2022/06/26 00:37:59;;;;;;;19.60;10.90;;;;;;;;;;4995185;28;20069;-63
2022/06/26 00:40:25;;;;;;;18.77;10.20;;;;;;;;;;5013504;28;20022;-63
2022/06/26 00:42:51;;;;;;;19.80;13.77;;;;;;;;;;5013487;28;20018;-63
2022/06/26 00:45:17;;;;;;;19.05;13.63;;;;;;;;;;5013253;28;20026;-63
2022/06/26 00:47:43;;;;;;;18.42;11.18;;;;;;;;;;5012852;28;20048;-63
2022/06/26 00:50:09;;;;;;;17.75;11.38;;;;;;;;;;5013324;28;20030;-63
2022/06/26 00:52:36;;;;;;;17.17;10.68;;;;;;;;;;5012779;28;20506;-64
2022/06/26 00:55:03;;;;;;;16.88;9.90;;;;;;;;;;5013428;28;20084;-63
2022/06/26 00:57:30;;;;;;;16.33;10.07;;;;;;;;;;5012603;28;20157;-63
2022/06/26 00:59:56;;;;;;;18.10;10.82;;;;;;;;;;5013155;28;20093;-63
2022/06/26 01:02:22;;;;;;;16.83;10.52;;;;;;;;;;5013006;28;20560;-63
2022/06/26 01:04:48;;;;;;;16.98;10.85;;;;;;;;;;5013153;28;20037;-63
2022/06/26 01:07:15;;;;;;;17.08;10.57;;;20.40;99.90;;;;;;5012527;28;20401;-62
2022/06/26 01:09:41;;;;;;;16.42;10.65;;;21.00;99.90;;;;;;5012958;28;20056;-62
2022/06/26 01:12:07;;;;;;;15.95;10.20;;;21.00;99.90;;;;;;4995298;28;20050;-63
2022/06/26 01:14:33;;;;;;;17.75;9.88;;;21.00;99.90;;;;;;5012479;28;20022;-63
2022/06/26 01:16:59;;;;;;;16.35;10.07;;;21.20;99.90;;;;;;5013128;28;20072;-64
2022/06/26 01:19:25;;;;;;;17.35;9.60;;;21.20;99.90;;;;;;5012377;28;20401;-63
2022/06/26 01:21:51;;;;;;;16.38;9.88;;;21.30;99.90;;;;;;5011829;23;20035;-64
2022/06/26 01:24:16;;;;;;;17.25;10.00;;;21.30;99.90;;;;;;4974410;28;20522;-64
2022/06/26 01:26:42;;;;;;;17.48;9.93;;;21.30;99.90;;;;;;4992105;28;20077;-65
2022/06/26 01:29:08;;;;;;;16.75;10.70;;;21.30;99.90;;;;;;4991440;28;20035;-64
2022/06/26 01:31:34;;;;;;;17.05;9.90;;;21.10;99.90;;;;;;4991834;28;20563;-64
2022/06/26 01:34:02;;;;;;;18.75;10.50;;;21.00;99.90;;;;;;4974479;28;20037;-64
2022/06/26 01:36:28;;;;;;;18.60;10.63;;;20.80;99.90;;;;;;4974417;28;20656;-65
2022/06/26 01:38:53;;;;;;;16.30;10.45;;;20.70;99.90;;;;;;4990972;28;20035;-64
2022/06/26 01:41:19;;;;;;;16.70;10.52;;;;;;;;;;4991601;28;20435;-65
2022/06/26 01:43:45;;;;;;;19.88;10.88;;;;;;;;;;4991740;28;20030;-62
2022/06/26 01:46:11;;;;;;;17.38;10.73;;;;;;;;;;4974016;28;20018;-62
2022/06/26 01:48:38;;;;;;;17.63;11.10;;;;;;;;;;4990842;28;20105;-63
2022/06/26 01:51:05;;;;;;;19.10;12.10;;;20.50;99.90;;;;;;4991608;28;20141;-64
2022/06/26 01:53:31;;;;;;;17.75;10.95;;;;;;;;;;4991367;28;20037;-64
2022/06/26 01:55:57;;;;;;;19.05;11.50;;;;;;;;;;4991400;28;20046;-65
2022/06/26 01:58:23;;;;;;;18.40;12.40;;;;;;;;;;4990484;28;20463;-62
2022/06/26 02:00:53;;;;;;;17.80;11.35;;;;;;;;;;4973897;28;20400;-62
2022/06/26 02:03:21;;;;;;;17.40;11.55;;;;;;;;;;4991564;28;20089;-64
2022/06/26 02:05:47;;;;;;;18.85;12.70;;;;;;;;;;4991432;28;20034;-64
2022/06/26 02:08:13;;;;;;;19.30;11.48;;;;;;;;;;4973420;28;20518;-64
2022/06/26 02:13:36;;;;;;;18.92;12.50;;;;;;;;;;4991633;28;20138;-63
2022/06/26 02:16:19;;;;;;;20.48;13.55;;;;;;;;;;4991666;28;20026;-63
2022/06/26 02:18:49;;;;;;;18.17;12.43;;;;;;;;;;4990793;28;20034;-63
2022/06/26 02:21:17;;;;;;;19.67;12.27;;;;;;;;;;4991592;28;20022;-64
2022/06/26 02:23:44;;;;;;;20.73;13.37;;;;;;;;;;4991518;28;20027;-64
2022/06/26 02:26:10;;;;;;;18.25;12.60;;;;;;;;;;4993779;28;20053;-65
2022/06/26 02:28:37;;;;;;;22.42;13.82;;;;;;;;;;4994784;28;20038;-65
2022/06/26 02:31:03;;;;;;;18.35;12.25;;;;;;;;;;4995203;28;20022;-65
2022/06/26 02:33:32;;;;;;;19.05;11.80;;;;;;;;;;4995686;28;20109;-64
2022/06/26 02:35:58;;;;;;;17.60;11.65;;;;;;;;;;4996771;28;20494;-63
2022/06/26 02:38:24;;;;;;;17.85;11.77;;;;;;;;;;4994598;28;20031;-65
2022/06/26 02:40:50;;;;;;;19.27;11.98;;;;;;;;;;4995736;28;20116;-64
2022/06/26 02:43:18;;;;;;;21.63;13.10;;;;;;;;;;4978629;28;20026;-67
2022/06/26 02:45:44;;;;;;;20.40;13.07;;;;;;;;;;4995605;28;20015;-64
2022/06/26 02:48:11;;;;;;;18.23;12.13;;;;;;;;;;4977056;28;20085;-65
2022/06/26 02:50:37;;;;;;;21.70;12.27;;;;;;;;;;4978093;28;20105;-65
2022/06/26 02:53:03;;;;;;;19.30;12.38;;;;;;;;;;4980367;28;20027;-65
2022/06/26 02:55:29;;;;;;;18.63;13.15;;;;;;;;;;4980546;28;20025;-65
2022/06/26 02:57:56;;;;;;;21.52;13.57;;;;;;;;;;4979006;28;20506;-65
2022/06/26 03:00:22;;;;;;;19.33;12.93;;;;;;;;;;4998813;28;20041;-63
2022/06/26 03:02:48;;;;;;;19.60;13.70;;;;;;;;;;4981800;28;20089;-66
2022/06/26 03:05:14;;;;;;;21.45;13.63;;;;;;;;;;4999459;28;20046;-64
2022/06/26 03:07:40;;;;;;;21.30;14.05;;;;;;;;;;4996855;28;20046;-64
2022/06/26 03:10:06;;;;;;;19.65;13.90;;;;;;;;;;4996753;28;20394;-64
2022/06/26 03:12:32;;;;;;;20.40;14.18;;;;;;;;;;4978305;28;20500;-63
2022/06/26 03:14:59;;;;;;;20.58;14.70;;;;;;;;;;4994703;28;20035;-64
2022/06/26 03:17:25;;;;;;;22.13;16.02;;;;;;;;;;4976220;28;20379;-66
2022/06/26 03:19:51;;;;;;;21.75;16.05;;;;;;;;;;4994911;28;20022;-65
2022/06/26 03:22:17;;;;;;;23.10;16.38;;;;;;;;;;4994009;28;20254;-63
2022/06/26 03:24:45;;;;;;;20.52;15.02;;;;;;;;;;4994298;28;20018;-64
2022/06/26 03:27:11;;;;;;;21.92;14.27;;;;;;;;;;4976222;28;20444;-64
2022/06/26 03:29:37;;;;;;;23.95;16.17;;;;;;;;;;4993948;28;20117;-64
2022/06/26 03:32:03;;;;;;;20.52;16.40;;;;;;;;;;4994011;28;20019;-64
2022/06/26 03:34:29;;;;;;;22.00;16.60;;;;;;;;;;4994021;28;20033;-64
2022/06/26 03:36:55;;;;;;;21.25;16.67;;;;;;;;;;4993539;28;20095;-63
2022/06/26 03:39:21;;;;;;;22.17;16.40;;;;;;;;;;4993042;28;20046;-64
2022/06/26 03:41:57;;;;;;;22.23;16.63;;;;;;;;;;4993894;28;20038;-65
2022/06/26 03:44:27;;;;;;;21.88;15.73;;;;;;;;;;4993984;28;20022;-65
2022/06/26 03:46:54;;;;;;;23.73;17.77;;;;;;;;;;4993961;28;20402;-63
2022/06/26 03:49:20;;;;;;;21.60;16.67;;;;;;;;;;4993172;28;20033;-63
2022/06/26 03:51:46;;;;;;;22.75;18.35;;;;;;;;;;4994034;28;20022;-64
2022/06/26 03:54:12;;;;;;;23.00;16.17;;;;;;;;;;4993921;28;20038;-64
2022/06/26 03:56:38;;;;;;;23.55;17.33;;;;;;;;;;4976514;28;20032;-64
2022/06/26 03:59:04;;;;;;;23.27;16.48;;;;;;;;;;4992974;28;20033;-64
2022/06/26 04:01:31;;;;;;;24.73;16.33;;;;;;;;;;4993777;28;20023;-64
2022/06/26 04:03:57;;;;;;;22.63;16.38;;;;;;;;;;4976134;28;20018;-64
2022/06/26 04:06:23;;;;;;;24.42;16.30;;;;;;;;;;4993725;28;20030;-63
2022/06/26 04:08:49;;;;;;;21.35;15.95;;;;;;;;;;4976908;28;20045;-64
2022/06/26 04:11:16;;;;;;;23.30;17.60;;;;;;;;;;4994170;28;20026;-64
2022/06/26 04:13:42;;;;;;;21.48;17.05;;;;;;;;;;4994005;28;20034;-63
2022/06/26 04:16:08;;;;;;;23.20;18.25;;;;;;;;;;4993857;28;20045;-64
2022/06/26 04:18:34;;;;;;;21.90;17.38;;;;;;;;;;4993060;28;20033;-64
2022/06/26 04:21:00;;;;;;;22.50;16.85;;;;;;;;;;4993625;28;20022;-64
2022/06/26 04:23:27;;;;;;;24.40;17.75;;;;;;;;;;4993157;28;20033;-64
2022/06/26 04:25:53;;;;;;;21.67;16.33;;;;;;;;;;4993508;28;20022;-64
2022/06/26 04:28:19;;;;;;;22.40;16.08;;;;;;;;;;4992565;28;20121;-64
2022/06/26 04:30:45;;;;;;;22.52;17.65;;;;;;;;;;4993683;28;20057;-63
2022/06/26 04:33:11;;;;;;;22.17;17.42;;;;;;;;;;4993010;28;20034;-64
2022/06/26 04:35:37;;;;;;;23.17;17.70;;;;;;;;;;4993182;28;20037;-64
2022/06/26 04:38:03;;;;;;;21.92;17.30;;;;;;;;;;4992375;28;20106;-64
2022/06/26 04:40:29;;;;;;;23.33;16.77;;;;;;;;;;4993122;28;20037;-64
2022/06/26 04:42:55;;;;;;;22.17;16.75;;;;;;;;;;4992961;28;20026;-64
2022/06/26 04:45:21;;;;;;;21.67;16.30;;;;;;;;;;4992997;28;20510;-64
2022/06/26 04:47:48;;;;;;;23.42;16.15;;;;;;;;;;4991526;28;20030;-63
2022/06/26 04:50:14;;;;;;;22.15;17.45;;;;;;;;;;4975188;28;20117;-64
2022/06/26 04:52:43;;;;;;;21.88;16.02;;;;;;;;;;4992735;28;20073;-63
2022/06/26 04:55:09;;;;;;;22.45;16.35;;;;;;;;;;4992607;28;20038;-63
2022/06/26 04:57:35;;;;;;;22.02;16.30;;;;;;;;;;4991683;28;20109;-63
2022/06/26 05:00:03;;;;;;;20.92;16.45;;;;;;;;;;4992315;28;20023;-64
2022/06/26 05:02:29;;;;;;;21.65;16.33;;;;;;;;;;4992549;28;20092;-63
2022/06/26 05:04:55;;;;;;;25.48;16.85;;;;;;;;;;4974759;28;20030;-63
2022/06/26 05:07:21;;;;;;;22.75;17.00;;;;;;;;;;4991567;28;20027;-63
2022/06/26 05:09:47;;;;;;;25.35;17.05;;;;;;;;;;4974732;28;20113;-63
2022/06/26 05:12:13;;;;;;;27.80;17.70;;;;;;;;;;4992289;28;20053;-63
2022/06/26 05:14:39;;;;;;;24.27;18.20;;;;;;;;;;4992188;28;20022;-63
2022/06/26 05:17:05;;;;;;;21.77;16.48;;;;;;;;;;4991939;28;20070;-66
2022/06/26 05:19:31;;;;;;;23.17;17.85;;;;;;;;;;4973746;28;20398;-63
2022/06/26 05:21:57;;;;;;;22.23;15.30;;;;;;;;;;4991819;28;20398;-63
2022/06/26 05:24:23;;;;;;;21.10;14.75;;;;;;;;;;4991842;28;20029;-63
2022/06/26 05:26:49;;;;;;;19.15;13.73;;;;;;;;;;4991818;28;20364;-63
2022/06/26 05:29:15;;;;;;;21.42;12.60;;;;;;;;;;4973330;28;20037;-63
2022/06/26 05:31:41;;;;;;;20.50;13.70;;;;;;;;;;4991905;28;20026;-63
2022/06/26 05:34:07;;;;;;;19.52;12.63;;;;;;;;;;4991639;28;20364;-63
2022/06/26 05:36:33;;;;;;;18.58;12.90;;;;;;;;;;4991838;28;20046;-63
2022/06/26 05:38:59;;;;;;;18.77;12.55;;;;;;;;;;4990829;28;20034;-63
2022/06/26 05:41:25;;;;;;;19.13;12.45;;;;;;;;;;4991587;28;20041;-63
2022/06/26 05:43:51;;;;;;;18.50;12.10;;;;;;;;;;4974066;28;20478;-63
2022/06/26 05:46:17;;;;;;;18.23;12.38;;;;;;;;;;4991543;28;20018;-63
2022/06/26 05:48:44;;;;;;;17.38;11.80;;;;;;;;;;4990734;28;20397;-63
2022/06/26 05:51:10;;;;;;;17.63;11.43;;;;;;;;;;4991341;28;20026;-61
2022/06/26 05:53:37;;;;;;;18.23;12.43;;;;;;;;;;4991755;28;20037;-63
2022/06/26 05:56:03;;;;;;;17.43;11.33;;;;;;;;;;4991517;28;20022;-63
2022/06/26 05:58:29;;;;;;;18.65;11.43;;;;;;;;;;4990520;28;20033;-63
2022/06/26 06:00:55;;;;;;;18.25;10.85;;;;;;;;;;4991470;28;20022;-63
2022/06/26 06:03:21;;;;;;;17.33;10.23;;;;;;;;;;4991351;28;20038;-63
2022/06/26 06:05:47;;;;;;;19.05;10.85;;;;;;;;;;4991448;28;20031;-63
2022/06/26 06:08:13;;;;;;;17.88;10.80;;;;;;;;;;4990501;28;20371;-66
2022/06/26 06:10:39;;;;;;;16.25;10.00;;;;;;;;;;4991485;28;20026;-63
2022/06/26 06:13:05;;;;;;;17.20;10.50;;;;;;;;;;4991267;28;20495;-63
2022/06/26 06:15:31;;;;;;;17.80;10.77;;;;;;;;;;4991634;28;20053;-63
2022/06/26 06:17:57;;;;;;;17.70;10.95;;;;;;;;;;4990613;28;20081;-62
2022/06/26 06:20:24;;;;;;;18.00;10.90;;;;;;;;;;4991554;28;20662;-63
2022/06/26 06:22:55;;;;;;;16.40;10.48;;;;;;;;;;4991656;28;20057;-63
2022/06/26 06:25:22;;;;;;;17.55;10.15;;;;;;;;;;4974445;28;20459;-63
2022/06/26 06:27:48;;;;;;;15.93;10.35;;;;;;;;;;4990802;28;20118;-64
2022/06/26 06:30:15;;;;;;;17.08;8.90;;;;;;;;;;4991520;28;20050;-62
2022/06/26 06:32:41;;;;;;;16.05;9.15;;;;;;;;;;4990108;28;20125;-63
2022/06/26 06:35:13;;;;;;;19.50;11.95;;;;;;;;;;4991306;28;20038;-64
2022/06/26 06:37:43;;;;;;;18.85;10.77;;;;;;;;;;4990365;28;20054;-64
2022/06/26 06:40:10;;;;;;;17.77;10.77;;;;;;;;;;4991434;28;20027;-63
2022/06/26 06:42:36;;;;;;;16.98;11.00;;;;;;;;;;5000251;28;20050;-64
2022/06/26 06:45:03;;;;;;;17.27;10.68;;;;;;;;;;5001295;28;20020;-63
2022/06/26 06:47:29;;;;;;;17.00;11.13;;;;;;;;;;5000691;28;20437;-64
2022/06/26 06:49:55;;;;;;;19.38;12.05;;;;;;;;;;4984852;28;20451;-63
2022/06/26 06:52:21;;;;;;;18.70;12.82;;;;;;;;;;5001397;28;20026;-65
2022/06/26 06:54:47;;;;;;;20.75;13.75;;;;;;;;;;5001566;28;20031;-64
2022/06/26 06:57:13;;;;;;;20.80;13.83;;;;;;;;;;5002067;28;20014;-65
2022/06/26 06:59:39;;;;;;;19.25;13.13;;;;;;;;;;5001083;28;20263;-64
2022/06/26 07:02:05;;;;;;;22.08;14.35;;;;;;;;;;5001530;28;20077;-64
2022/06/26 07:04:31;;;;;;;19.17;13.60;;;;;;;;;;5001848;28;20057;-64
2022/06/26 07:06:57;;;;;;;20.88;14.35;;;;;;;;;;4982938;28;20041;-66
2022/06/26 07:09:26;;;;;;;22.00;15.40;;;;;;;;;;4999889;28;20026;-64
2022/06/26 07:11:52;;;;;;;23.23;15.18;;;;;;;;;;5001691;28;20046;-64
2022/06/26 07:14:18;;;;;;;20.95;15.43;;;;;;;;;;5004326;28;20031;-65
2022/06/26 07:16:44;;;;;;;22.35;15.70;;;;;;;;;;5004592;28;20074;-64
2022/06/26 07:19:10;;;;;;;21.35;14.73;;;;;;;;;;5003800;28;20038;-64
2022/06/26 07:24:08;;;;;;;21.55;15.15;;;;;;;;;;5049357;23;20132;-63
2022/06/26 07:26:34;;;;;;;20.55;14.55;;;;;;;;;;5034562;28;20462;-63
2022/06/26 07:29:01;;;;;;;21.40;15.60;;;;;;;;;;5033871;28;20112;-62
2022/06/26 07:31:27;;;;;;;22.45;15.20;;;;;;;;;;5034548;28;20029;-64
2022/06/26 07:36:37;;;;;;;23.75;16.25;;;;;;;;;;5034756;28;20513;-63
2022/06/26 07:39:03;;;;;;;21.70;15.57;;;;;;;;;;5033948;28;20029;-63
2022/06/26 07:41:29;;;;;;;21.30;15.50;;;;;;;;;;5017313;28;20021;-64
2022/06/26 07:43:55;;;;;;;23.50;16.75;;;;;;;;;;5034476;28;20075;-63
2022/06/26 07:46:21;;;;;;;21.63;15.75;;;;;;;;;;5016498;28;20429;-62
2022/06/26 07:48:47;;;;;;;21.85;14.90;;;;;;;;;;5033574;28;20032;-63
2022/06/26 07:51:13;;;;;;;23.92;16.13;;;;;;;;;;5034363;28;20022;-64
2022/06/26 07:53:39;;;;;;;22.50;15.55;;;;;;;;;;5016514;28;20032;-63
2022/06/26 07:56:05;;;;;;;21.55;14.82;;;;;;;;;;5034490;28;20033;-64
2022/06/26 07:58:32;;;;;;;22.30;14.80;;;;;;;;;;5033445;28;20036;-63
2022/06/26 08:00:58;;;;;;;20.83;14.23;;;;;;;;;;5033955;28;20099;-63
2022/06/26 08:03:24;;;;;;;21.00;13.48;;;;;;;;;;5016412;28;20045;-63
2022/06/26 08:05:51;;;;;;;20.67;14.40;;;;;;;;;;5033987;28;20432;-64
2022/06/26 08:08:17;;;;;;;19.40;13.48;;;;;;;;;;5033189;28;20100;-63
2022/06/26 08:10:43;;;;;;;23.33;15.80;;;;;;;;;;5016199;28;20053;-64
2022/06/26 08:13:09;;;;;;;20.58;15.70;;;;;;;;;;5033853;28;20025;-64
2022/06/26 08:15:36;;;;;;;23.58;15.25;;;;;;;;;;5033526;28;20551;-64
2022/06/26 08:18:02;;;;;;;21.98;16.52;;;;;;;;;;5032723;28;20104;-63
2022/06/26 08:20:28;;;;;;;22.45;16.02;;;;;;;;;;5033715;28;20014;-64
2022/06/26 08:22:54;;;;;;;22.08;16.40;;;;;;;;;;5014384;28;20477;-64
2022/06/26 08:25:21;;;;;;;21.08;14.63;;;;;;;;;;5015824;28;20022;-66
2022/06/26 08:27:47;;;;;;;22.50;15.00;;;;;;;;;;5019276;28;20030;-64
2022/06/26 08:30:13;;;;;;;20.20;14.30;;;;;;;;;;5022465;28;20033;-63
2022/06/26 08:32:39;;;;;;;20.77;14.27;;;;;;;;;;5018792;28;20162;-64
2022/06/26 08:35:09;;;;;;;22.17;14.60;;;;;;;;;;5013467;28;20053;-64
2022/06/26 08:37:35;;;;;;;20.67;15.60;;;;;;;;;;5012978;28;20108;-64
2022/06/26 08:40:01;;;;;;;21.02;14.30;;;;;;;;;;4996007;28;20181;-63
2022/06/26 08:42:27;;;;;;;20.40;14.13;;;;;;;;;;5013374;28;20014;-64
2022/06/26 08:44:55;;;;;;;21.50;15.18;;;;;;;;;;4995211;28;20021;-64
2022/06/26 08:47:23;;;;;;;19.00;13.83;;;;;;;;;;5011647;28;20026;-63
2022/06/26 08:49:49;;;;;;;19.27;13.85;;;;;;;;;;5013585;28;20365;-63
2022/06/26 08:52:17;;;;;;;19.40;13.57;;;;;;;;;;5013287;28;20490;-63
2022/06/26 08:54:44;;;;;;;20.42;14.30;;;;;;;;;;5013338;28;20022;-63
2022/06/26 08:57:12;;;;;;;19.58;14.05;;;;;;;;;;5012465;28;20462;-61
2022/06/26 08:59:39;;;;;;;19.65;13.68;;;;;;;;;;5012960;28;20061;-65
2022/06/26 09:02:05;;;;;;;20.83;14.50;;;;;;;;;;5013096;28;20088;-63
2022/06/26 09:04:31;;;;;;;18.67;13.43;;;;;;;;;;5013405;28;20033;-63
2022/06/26 09:06:57;;;;;;;19.27;13.20;;;;;;;;;;5013020;28;20018;-64
2022/06/26 09:09:24;;;;;;;16.88;11.20;;;;;;;;;;5012161;28;20467;-63
2022/06/26 09:11:54;;;;;;;17.67;11.90;;;;;;;;;;5012954;28;20030;-63
2022/06/26 09:14:21;;;;;;;18.48;12.07;;;;;;;;;;5013236;28;20478;-63
2022/06/26 09:16:48;;;;;;;19.23;12.55;;;;;;;;;;5013282;28;20390;-64
2022/06/26 09:19:16;;;;;;;19.23;12.77;;;;;;;;;;5012044;28;20030;-64
2022/06/26 09:21:43;;;;;;;19.27;13.15;;;;;;;;;;5012932;28;20095;-64
2022/06/26 09:24:10;;;;;;;18.30;12.90;;;;;;;;;;5021155;28;20026;-64
2022/06/26 09:26:36;;;;;;;18.67;13.30;;;;;;;;;;5004598;28;20486;-64
2022/06/26 09:29:09;;;;;;;18.67;12.93;;;;;;;;;;5013969;28;20429;-64
2022/06/26 09:31:36;;;;;;;17.58;12.27;;;;;;;;;;5013256;28;20508;-65
2022/06/26 09:34:02;;;;;;;18.30;12.10;;;;;;;;;;5012333;28;20030;-64
2022/06/26 09:36:28;;;;;;;16.02;9.55;;;;;;;;;;5012691;28;20029;-64
2022/06/26 09:38:54;;;;;;;15.43;9.40;;;;;;;;;;5011835;28;20033;-64
2022/06/26 09:41:30;;;;;;;15.10;9.45;;;;;;;;;;4994987;28;20044;-65
2022/06/26 09:43:57;;;;;;;15.48;9.63;;;;;;;;;;5012375;28;20029;-64
2022/06/26 09:46:29;;;;;;;14.95;9.57;;;;;;;;;;5012557;28;20371;-59
2022/06/26 09:48:57;;;;;;;15.80;10.70;;;;;;;;;;5011765;28;20021;-57
2022/06/26 09:51:23;;;;;;;17.03;10.23;;;;;;;;;;4992912;28;20076;-57
2022/06/26 09:53:49;;;;;;;16.27;11.18;;;;;;;;;;5012058;28;20058;-54
2022/06/26 09:56:16;;;;;;;17.38;11.52;;;;;;;;;;5012418;28;20026;-59
2022/06/26 09:58:42;;;;;;;15.80;10.63;;;;;;;;;;5011421;28;20361;-55
2022/06/26 10:06:39;;;;;;;15.07;10.18;;;19.90;99.90;;;;;;5032175;28;20079;-56
2022/06/26 10:09:08;;;;;;;15.52;9.93;;;24.60;99.90;;;;;;5029524;28;20452;-58
2022/06/26 10:11:40;;;;;;;15.55;10.93;;;24.50;99.90;;;;;;5031845;28;20071;-59
2022/06/26 10:14:21;;;;;;;16.45;10.90;;;24.20;99.90;;;;;;5031341;28;20512;-57
2022/06/26 10:17:05;;;;;;;16.50;10.38;;;24.00;99.90;;;;;;5031584;28;20034;-54
2022/06/26 10:20:09;;;;;;;16.08;10.63;;;24.30;99.90;;;;;;5030598;28;20057;-54
2022/06/26 10:22:42;;;;;;;17.55;10.48;;;24.30;99.90;;;;;;4970224;28;20055;-57
2022/06/26 10:25:20;;;;;;;15.40;10.55;;;24.00;99.90;;;;;;5022879;28;20120;-58
2022/06/26 10:27:45;;;;;;;16.88;10.48;;;24.30;99.90;;;;;;5030819;28;20036;-59
2022/06/26 10:30:13;;;;;;;16.20;10.10;;;24.20;99.90;;;;;;5031578;28;20030;-54
2022/06/26 10:32:39;;;;;;;16.08;10.02;;;24.30;99.90;;;;;;5030815;28;20402;-56
2022/06/26 10:35:06;;;;;;;16.75;9.88;;;24.20;99.90;;;;;;5028666;28;20045;-59
2022/06/26 10:37:52;;;;;;;16.33;10.07;;;24.20;99.90;;;;;;5025135;28;20025;-55
2022/06/26 10:43:05;;;;;;;15.75;10.35;;;25.20;99.90;;;;;;5021793;28;20041;-57
2022/06/26 10:45:36;;;;;;;15.27;9.70;;;25.20;99.90;;;;;;5020650;28;20021;-58
2022/06/26 10:48:20;;;;;;;16.00;10.35;;;24.80;99.90;;;;;;5024542;28;20041;-54
2022/06/26 10:50:57;;;;;;;16.50;10.23;;;24.50;99.90;;;;;;5007850;28;20105;-55
2022/06/26 10:53:24;;;;;;;15.27;9.80;;;24.20;99.90;;;;;;5031005;28;20080;-54
2022/06/26 10:55:57;;;;;;;17.17;10.52;;;23.60;99.90;;;;;;5031800;28;20037;-57
2022/06/26 10:58:35;;;;;;;15.30;9.68;;;23.50;99.90;;;;;;5052441;28;20025;-55
2022/06/26 11:01:06;;;;;;;15.23;9.48;;;23.50;99.90;;;;;;5037047;28;20032;-58
2022/06/26 11:03:32;;;;;;;18.75;9.75;;;23.60;99.90;;;;;;5054940;28;20036;-57
2022/06/26 11:06:08;;;;;;;14.55;9.32;;;23.70;99.90;;;;;;5054997;28;20384;-56
2022/06/26 11:08:34;;;;;;;16.33;10.05;;;23.20;99.90;;;;;;5036056;28;20032;-57
2022/06/26 11:11:14;;;;;;;15.75;9.70;;;23.20;99.90;;;;;;5037291;28;20033;-57
2022/06/26 11:13:57;;;;;;;15.75;9.13;;;23.20;99.90;;;;;;5034564;28;20486;-59
2022/06/26 11:16:32;;;;;;;14.88;8.90;;;23.40;99.90;;;;;;5034810;28;20032;-58
2022/06/26 11:18:59;;;;;;;14.25;8.65;;;23.40;99.90;;;;;;5034005;28;20025;-54
2022/06/26 11:21:26;;;;;;;16.08;8.75;;;23.40;99.90;;;;;;5034882;28;20037;-58
2022/06/26 11:23:52;;;;;;;14.77;9.25;;;23.40;99.90;;;;;;5034631;28;20080;-56
2022/06/26 11:26:20;;;;;;;16.20;8.82;;;23.30;99.90;;;;;;5016981;28;20385;-58
2022/06/26 11:28:54;;;;;;;15.10;9.23;;;23.20;99.90;;;;;;5016144;28;20052;-57
2022/06/26 11:31:23;;;;;;;16.30;8.80;;;23.00;99.90;;;;;;5034350;28;20029;-57
2022/06/26 11:33:49;;;;;;;14.57;8.95;;;23.10;99.90;;;;;;5034515;28;20397;-59
2022/06/26 11:36:16;;;;;;;16.25;8.82;;;23.50;99.90;;;;;;5034382;28;20103;-55
2022/06/26 11:38:54;;;;;;;14.50;8.85;;;23.90;99.90;;;;;;5033761;28;20025;-60
2022/06/26 11:41:22;;;;;;;21.30;9.35;;;24.50;99.90;;;;;;5029681;28;20497;-59
2022/06/26 11:43:53;;;;;;;14.98;9.10;;;25.60;99.90;;;;;;5034026;28;20490;-56
2022/06/26 11:46:19;;;;;;;15.25;9.20;;;25.60;99.40;;;;;;5016599;28;20026;-57
2022/06/26 11:48:48;;;;;;;14.30;8.77;;;25.60;99.50;;;;;;5015537;28;20378;-57
2022/06/26 11:51:13;;;;;;;14.80;9.32;;;26.40;98.60;;;;;;5034066;28;20026;-57
2022/06/26 11:53:44;;;;;;;14.30;9.02;;;26.30;98.50;;;;;;5033874;28;20085;-56
2022/06/26 11:56:11;;;;;;;15.95;9.00;;;27.40;97.90;;;;;;5020538;28;20079;-57
2022/06/26 11:58:37;;;;;;;14.90;9.27;;;;;;;;;;5036430;28;20017;-58
2022/06/26 12:01:03;;;;;;;14.68;9.43;;;;;;;;;;5035753;28;20032;-52
2022/06/26 12:03:28;;;;;;;14.65;9.57;;;27.30;97.30;;;;;;5034476;28;20017;-57
2022/06/26 12:05:54;;;;;;;15.70;9.90;;;;;;;;;;5034145;28;20017;-59
2022/06/26 12:08:21;;;;;;;15.52;9.88;;;;;;;;;;5033025;28;20025;-58
2022/06/26 12:10:48;;;;;;;15.57;9.52;;;;;;;;;;5015609;28;20647;-57
2022/06/26 12:13:21;;;;;;;15.48;9.60;;;;;;;;;;5032217;28;20405;-58
2022/06/26 12:15:47;;;;;;;15.98;9.60;;;;;;;;;;5034188;28;20030;-57
2022/06/26 12:18:13;;;;;;;14.93;10.00;;;29.30;93.80;;;;;;5032756;28;20052;-59
2022/06/26 12:20:40;;;;;;;16.00;10.02;;;29.20;91.80;;;;;;5016016;28;20030;-55
2022/06/26 12:23:07;;;;;;;15.00;9.65;;;28.90;91.20;;;;;;5015775;28;20172;-55
2022/06/26 12:25:35;;;;;;;15.52;9.05;;;28.30;92.30;;;;;;5033499;28;20517;-57
2022/06/26 12:28:01;;;;;;;;;;;28.00;91.80;;;;;;5015463;28;20116;-56
2022/06/26 12:30:27;;;;;;;15.35;9.05;;;27.50;91.40;;;;;;5033296;28;20034;-55
2022/06/26 12:32:52;;;;;;;14.75;9.48;;;26.90;92.10;;;;;;5032959;28;20033;-58
2022/06/26 12:35:18;;;;;;;16.08;9.27;;;26.50;93.30;;;;;;5033242;28;20564;-58
2022/06/26 12:37:44;;;;;;;16.55;9.68;;;26.00;94.60;;;;;;5032365;28;20064;-58
2022/06/26 12:40:11;;;;;;;14.43;9.63;;;26.30;94.40;;;;;;5033064;28;20052;-57
2022/06/26 12:42:36;;;;;;;16.13;9.20;;;26.40;94.20;;;;;;5032735;28;20140;-56
2022/06/26 12:45:03;;;;;;;14.50;9.15;;;26.20;94.20;;;;;;5032994;28;20022;-58
2022/06/26 12:47:28;;;;;;;15.48;8.95;;;26.00;93.60;;;;;;5031881;28;20044;-58
2022/06/26 12:49:54;;;;;;;14.98;9.20;;;25.40;94.00;;;;;;5032750;28;20037;-56
2022/06/26 12:52:20;;;;;;;14.45;9.40;;;25.10;95.20;;;;;;5029037;28;20443;-55
2022/06/26 12:54:45;;;;;;;18.85;9.25;;;24.50;95.80;;;;;;5012986;28;20147;-59
2022/06/26 12:57:11;;;;;;;17.00;9.70;;;24.40;96.30;;;;;;5012938;28;20022;-57
2022/06/26 12:59:37;;;;;;;15.48;8.85;;;24.20;96.70;;;;;;5012879;28;20029;-56
2022/06/26 13:02:02;;;;;;;14.38;9.05;;;24.00;98.00;;;;;;5013513;28;20022;-57
2022/06/26 13:04:28;;;;;;;17.63;9.27;;;23.90;98.90;;;;;;5012560;28;20109;-58
2022/06/26 13:06:54;;;;;;;14.43;9.10;;;23.90;98.90;;;;;;5012771;28;20025;-57
2022/06/26 13:09:20;;;;;;;14.68;9.23;;;23.70;99.30;;;;;;4993585;28;20033;-55
2022/06/26 13:11:45;;;;;;;15.35;9.20;;;23.40;99.70;;;;;;5012593;28;20447;-58
2022/06/26 13:14:11;;;;;;;14.65;9.05;;;23.40;99.90;;;;;;5011762;28;20478;-57
2022/06/26 13:16:40;;;;;;;15.80;9.40;;;23.30;99.90;;;;;;5012708;28;20120;-58
2022/06/26 13:19:09;;;;;;;14.93;9.13;;;23.40;99.90;;;;;;5011835;28;20125;-59
2022/06/26 13:21:36;;;;;;;16.55;9.73;;;23.30;99.90;;;;;;5012891;28;20026;-60
2022/06/26 13:26:29;;;;;;;15.07;9.13;;;23.40;99.90;;;;;;5018027;28;20100;-56
2022/06/26 13:28:55;;;;;;;15.30;8.70;;;23.40;99.90;;;;;;5020306;28;20127;-58
2022/06/26 13:31:21;;;;;;;15.57;9.05;;;23.50;99.90;;;;;;5018262;28;20466;-57
2022/06/26 13:33:46;;;;;;;14.95;8.93;;;23.20;99.90;;;;;;5013488;28;20077;-56
2022/06/26 13:36:12;;;;;;;15.95;9.50;;;23.40;99.90;;;;;;4994160;28;20109;-58
2022/06/26 13:38:38;;;;;;;15.38;9.00;;;23.30;99.90;;;;;;5001342;28;20039;-58
2022/06/26 13:41:05;;;;;;;15.00;8.98;;;23.20;99.90;;;;;;4999997;28;20072;-58
2022/06/26 13:43:30;;;;;;;14.98;9.10;;;23.20;99.90;;;;;;4999494;28;20027;-58
2022/06/26 13:45:56;;;;;;;16.52;9.52;;;23.30;99.90;;;;;;4999372;28;20105;-56
2022/06/26 13:48:22;;;;;;;14.88;8.82;;;23.20;99.90;;;;;;4999792;28;20041;-53
2022/06/26 13:50:47;;;;;;;15.80;8.68;;;22.80;99.90;;;;;;5001695;28;20050;-58
2022/06/26 13:53:13;;;;;;;16.70;9.20;;;22.70;99.90;;;;;;5001802;28;20052;-55
2022/06/26 13:55:39;;;;;;;16.40;9.00;;;22.80;99.90;;;;;;5002555;28;20481;-56
2022/06/26 13:58:05;;;;;;;14.80;9.30;;;22.90;99.90;;;;;;5005370;28;20052;-58
2022/06/26 14:00:31;;;;;;;14.90;8.90;;;22.90;99.90;;;;;;4991713;28;20054;-56
2022/06/26 14:02:56;;;;;;;15.95;8.95;;;22.80;99.90;;;;;;5005036;28;20437;-58